sensor_id;sensor_type;location;lat;lon;timestamp;P1;durP1;ratioP1;P2;durP2;ratioP2
49812;SDS011;35706;52.100;5.056;2023-05-29T00:00:42;13.90;;;0.68;;
49812;SDS011;35706;52.100;5.056;2023-05-29T00:01:42;13.15;;;0.55;;
49812;SDS011;35706;52.100;5.056;2023-05-29T00:02:42;10.68;;;0.60;;
49812;SDS011;35706;52.100;5.056;2023-05-29T00:03:44;8.23;;;0.60;;
49812;SDS011;35706;52.100;5.056;2023-05-29T00:04:44;13.25;;;0.68;;
49812;SDS011;35706;52.100;5.056;2023-05-29T00:05:45;9.85;;;0.47;;
49812;SDS011;35706;52.100;5.056;2023-05-29T00:06:45;7.78;;;0.50;;
49812;SDS011;35706;52.100;5.056;2023-05-29T00:07:45;6.78;;;0.50;;
49812;SDS011;35706;52.100;5.056;2023-05-29T00:08:46;7.00;;;0.52;;
49812;SDS011;35706;52.100;5.056;2023-05-29T00:09:46;9.55;;;0.57;;
49812;SDS011;35706;52.100;5.056;2023-05-29T00:10:46;7.88;;;0.57;;
49812;SDS011;35706;52.100;5.056;2023-05-29T00:11:47;8.88;;;0.57;;
49812;SDS011;35706;52.100;5.056;2023-05-29T00:12:50;12.80;;;0.70;;
49812;SDS011;35706;52.100;5.056;2023-05-29T00:13:51;10.15;;;0.50;;
49812;SDS011;35706;52.100;5.056;2023-05-29T00:14:51;8.63;;;0.55;;
49812;SDS011;35706;52.100;5.056;2023-05-29T00:15:52;11.80;;;0.70;;
49812;SDS011;35706;52.100;5.056;2023-05-29T00:16:52;7.30;;;0.60;;
49812;SDS011;35706;52.100;5.056;2023-05-29T00:17:52;10.25;;;0.80;;
49812;SDS011;35706;52.100;5.056;2023-05-29T00:18:53;8.63;;;0.52;;
49812;SDS011;35706;52.100;5.056;2023-05-29T00:19:53;11.13;;;0.98;;
49812;SDS011;35706;52.100;5.056;2023-05-29T00:20:54;9.98;;;0.50;;
49812;SDS011;35706;52.100;5.056;2023-05-29T00:21:55;8.48;;;0.50;;
49812;SDS011;35706;52.100;5.056;2023-05-29T00:22:55;7.65;;;0.50;;
49812;SDS011;35706;52.100;5.056;2023-05-29T00:23:55;9.45;;;0.60;;
49812;SDS011;35706;52.100;5.056;2023-05-29T00:24:55;11.60;;;0.68;;
49812;SDS011;35706;52.100;5.056;2023-05-29T00:25:56;9.10;;;0.52;;
49812;SDS011;35706;52.100;5.056;2023-05-29T00:26:56;7.25;;;0.50;;
49812;SDS011;35706;52.100;5.056;2023-05-29T00:27:56;7.05;;;0.57;;
49812;SDS011;35706;52.100;5.056;2023-05-29T00:28:57;9.23;;;0.50;;
49812;SDS011;35706;52.100;5.056;2023-05-29T00:29:57;11.15;;;0.60;;
49812;SDS011;35706;52.100;5.056;2023-05-29T00:30:58;9.52;;;0.60;;
49812;SDS011;35706;52.100;5.056;2023-05-29T00:31:58;12.52;;;0.63;;
49812;SDS011;35706;52.100;5.056;2023-05-29T00:32:59;9.98;;;0.50;;
49812;SDS011;35706;52.100;5.056;2023-05-29T00:33:59;8.50;;;0.52;;
49812;SDS011;35706;52.100;5.056;2023-05-29T00:35:00;7.68;;;0.50;;
49812;SDS011;35706;52.100;5.056;2023-05-29T00:36:00;13.48;;;0.50;;
49812;SDS011;35706;52.100;5.056;2023-05-29T00:37:01;9.93;;;0.55;;
49812;SDS011;35706;52.100;5.056;2023-05-29T00:38:01;10.00;;;0.60;;
49812;SDS011;35706;52.100;5.056;2023-05-29T00:39:06;12.30;;;1.33;;
49812;SDS011;35706;52.100;5.056;2023-05-29T00:40:07;239.50;;;136.60;;
49812;SDS011;35706;52.100;5.056;2023-05-29T00:41:08;395.70;;;266.08;;
49812;SDS011;35706;52.100;5.056;2023-05-29T00:42:12;215.77;;;118.88;;
49812;SDS011;35706;52.100;5.056;2023-05-29T00:43:13;272.92;;;146.00;;
49812;SDS011;35706;52.100;5.056;2023-05-29T00:44:13;207.40;;;109.85;;
49812;SDS011;35706;52.100;5.056;2023-05-29T00:45:13;119.57;;;62.30;;
49812;SDS011;35706;52.100;5.056;2023-05-29T00:46:15;80.85;;;44.28;;
49812;SDS011;35706;52.100;5.056;2023-05-29T00:47:16;15.55;;;4.82;;
49812;SDS011;35706;52.100;5.056;2023-05-29T00:48:16;16.27;;;1.27;;
49812;SDS011;35706;52.100;5.056;2023-05-29T00:49:17;10.60;;;0.80;;
49812;SDS011;35706;52.100;5.056;2023-05-29T00:50:17;12.07;;;0.80;;
49812;SDS011;35706;52.100;5.056;2023-05-29T00:51:21;13.32;;;0.60;;
49812;SDS011;35706;52.100;5.056;2023-05-29T00:52:23;14.10;;;0.93;;
49812;SDS011;35706;52.100;5.056;2023-05-29T00:53:24;13.27;;;0.80;;
49812;SDS011;35706;52.100;5.056;2023-05-29T00:54:26;11.15;;;0.60;;
49812;SDS011;35706;52.100;5.056;2023-05-29T00:55:29;12.98;;;1.05;;
49812;SDS011;35706;52.100;5.056;2023-05-29T00:56:29;9.10;;;0.60;;
49812;SDS011;35706;52.100;5.056;2023-05-29T00:57:30;7.07;;;0.50;;
49812;SDS011;35706;52.100;5.056;2023-05-29T00:58:31;6.68;;;0.60;;
49812;SDS011;35706;52.100;5.056;2023-05-29T00:59:32;8.55;;;0.60;;
49812;SDS011;35706;52.100;5.056;2023-05-29T01:00:33;8.45;;;0.50;;
49812;SDS011;35706;52.100;5.056;2023-05-29T01:01:35;10.90;;;0.50;;
49812;SDS011;35706;52.100;5.056;2023-05-29T01:02:36;8.90;;;0.40;;
49812;SDS011;35706;52.100;5.056;2023-05-29T01:03:37;6.95;;;0.50;;
49812;SDS011;35706;52.100;5.056;2023-05-29T01:04:39;8.07;;;0.50;;
49812;SDS011;35706;52.100;5.056;2023-05-29T01:05:39;6.78;;;0.45;;
49812;SDS011;35706;52.100;5.056;2023-05-29T01:06:40;16.83;;;0.60;;
49812;SDS011;35706;52.100;5.056;2023-05-29T01:07:41;8.23;;;0.45;;
49812;SDS011;35706;52.100;5.056;2023-05-29T01:08:42;15.15;;;0.60;;
49812;SDS011;35706;52.100;5.056;2023-05-29T01:09:42;8.57;;;0.50;;
49812;SDS011;35706;52.100;5.056;2023-05-29T01:10:43;9.85;;;0.40;;
49812;SDS011;35706;52.100;5.056;2023-05-29T01:14:07;10.88;;;0.50;;
49812;SDS011;35706;52.100;5.056;2023-05-29T01:15:13;12.48;;;0.70;;
49812;SDS011;35706;52.100;5.056;2023-05-29T01:16:26;7.82;;;0.73;;
49812;SDS011;35706;52.100;5.056;2023-05-29T01:20:40;8.10;;;0.50;;
49812;SDS011;35706;52.100;5.056;2023-05-29T01:22:06;9.32;;;0.47;;
49812;SDS011;35706;52.100;5.056;2023-05-29T01:24:28;12.98;;;0.50;;
49812;SDS011;35706;52.100;5.056;2023-05-29T01:25:43;9.65;;;0.43;;
49812;SDS011;35706;52.100;5.056;2023-05-29T01:27:58;10.35;;;0.50;;
49812;SDS011;35706;52.100;5.056;2023-05-29T01:29:04;9.55;;;0.50;;
49812;SDS011;35706;52.100;5.056;2023-05-29T01:30:07;9.68;;;0.50;;
49812;SDS011;35706;52.100;5.056;2023-05-29T01:31:09;8.85;;;0.60;;
49812;SDS011;35706;52.100;5.056;2023-05-29T01:32:12;7.88;;;0.77;;
49812;SDS011;35706;52.100;5.056;2023-05-29T01:33:13;8.20;;;0.50;;
49812;SDS011;35706;52.100;5.056;2023-05-29T01:34:13;11.60;;;0.60;;
49812;SDS011;35706;52.100;5.056;2023-05-29T01:35:13;10.00;;;0.50;;
49812;SDS011;35706;52.100;5.056;2023-05-29T01:36:14;11.23;;;0.70;;
49812;SDS011;35706;52.100;5.056;2023-05-29T01:37:14;7.88;;;0.88;;
49812;SDS011;35706;52.100;5.056;2023-05-29T01:38:15;11.35;;;0.50;;
49812;SDS011;35706;52.100;5.056;2023-05-29T01:39:15;11.35;;;0.50;;
49812;SDS011;35706;52.100;5.056;2023-05-29T01:40:16;9.65;;;0.50;;
49812;SDS011;35706;52.100;5.056;2023-05-29T01:41:16;8.25;;;0.47;;
49812;SDS011;35706;52.100;5.056;2023-05-29T01:42:18;9.85;;;0.40;;
49812;SDS011;35706;52.100;5.056;2023-05-29T01:43:18;13.65;;;0.52;;
49812;SDS011;35706;52.100;5.056;2023-05-29T01:44:19;12.07;;;0.40;;
49812;SDS011;35706;52.100;5.056;2023-05-29T01:45:20;9.30;;;0.40;;
49812;SDS011;35706;52.100;5.056;2023-05-29T01:46:21;9.48;;;0.40;;
49812;SDS011;35706;52.100;5.056;2023-05-29T01:47:25;10.88;;;0.57;;
49812;SDS011;35706;52.100;5.056;2023-05-29T01:48:26;10.93;;;0.60;;
49812;SDS011;35706;52.100;5.056;2023-05-29T01:49:27;10.15;;;0.40;;
49812;SDS011;35706;52.100;5.056;2023-05-29T01:50:29;7.70;;;0.40;;
49812;SDS011;35706;52.100;5.056;2023-05-29T01:51:30;8.52;;;0.50;;
49812;SDS011;35706;52.100;5.056;2023-05-29T01:52:34;11.65;;;0.50;;
49812;SDS011;35706;52.100;5.056;2023-05-29T01:53:35;13.05;;;0.50;;
49812;SDS011;35706;52.100;5.056;2023-05-29T01:54:35;11.70;;;0.63;;
49812;SDS011;35706;52.100;5.056;2023-05-29T01:55:36;14.60;;;0.50;;
49812;SDS011;35706;52.100;5.056;2023-05-29T01:56:36;10.68;;;0.50;;
49812;SDS011;35706;52.100;5.056;2023-05-29T01:57:37;11.05;;;0.50;;
49812;SDS011;35706;52.100;5.056;2023-05-29T01:58:38;17.15;;;0.57;;
49812;SDS011;35706;52.100;5.056;2023-05-29T01:59:40;9.85;;;0.50;;
49812;SDS011;35706;52.100;5.056;2023-05-29T02:00:41;15.65;;;0.52;;
49812;SDS011;35706;52.100;5.056;2023-05-29T02:01:42;9.38;;;0.55;;
49812;SDS011;35706;52.100;5.056;2023-05-29T02:02:42;15.25;;;0.52;;
49812;SDS011;35706;52.100;5.056;2023-05-29T02:03:42;5.80;;;0.60;;
49812;SDS011;35706;52.100;5.056;2023-05-29T02:04:43;9.98;;;0.82;;
49812;SDS011;35706;52.100;5.056;2023-05-29T02:05:43;8.27;;;0.40;;
49812;SDS011;35706;52.100;5.056;2023-05-29T02:06:43;9.52;;;0.68;;
49812;SDS011;35706;52.100;5.056;2023-05-29T02:07:44;11.02;;;0.50;;
49812;SDS011;35706;52.100;5.056;2023-05-29T02:08:44;12.48;;;0.70;;
49812;SDS011;35706;52.100;5.056;2023-05-29T02:09:45;11.30;;;0.50;;
49812;SDS011;35706;52.100;5.056;2023-05-29T02:10:45;9.77;;;0.60;;
49812;SDS011;35706;52.100;5.056;2023-05-29T02:11:45;10.48;;;0.70;;
49812;SDS011;35706;52.100;5.056;2023-05-29T02:12:45;9.25;;;0.70;;
49812;SDS011;35706;52.100;5.056;2023-05-29T02:13:46;10.10;;;0.50;;
49812;SDS011;35706;52.100;5.056;2023-05-29T02:14:46;6.97;;;0.50;;
49812;SDS011;35706;52.100;5.056;2023-05-29T02:15:46;12.10;;;0.60;;
49812;SDS011;35706;52.100;5.056;2023-05-29T02:16:47;10.88;;;0.52;;
49812;SDS011;35706;52.100;5.056;2023-05-29T02:17:48;10.02;;;0.50;;
49812;SDS011;35706;52.100;5.056;2023-05-29T02:18:49;11.68;;;0.60;;
49812;SDS011;35706;52.100;5.056;2023-05-29T02:19:51;7.07;;;0.43;;
49812;SDS011;35706;52.100;5.056;2023-05-29T02:20:52;8.45;;;0.40;;
49812;SDS011;35706;52.100;5.056;2023-05-29T02:21:52;8.68;;;0.70;;
49812;SDS011;35706;52.100;5.056;2023-05-29T02:22:53;15.30;;;0.60;;
49812;SDS011;35706;52.100;5.056;2023-05-29T02:23:53;10.07;;;0.45;;
49812;SDS011;35706;52.100;5.056;2023-05-29T02:24:53;12.20;;;0.50;;
49812;SDS011;35706;52.100;5.056;2023-05-29T02:25:54;11.90;;;0.70;;
49812;SDS011;35706;52.100;5.056;2023-05-29T02:26:54;17.15;;;0.77;;
49812;SDS011;35706;52.100;5.056;2023-05-29T02:27:55;11.55;;;0.60;;
49812;SDS011;35706;52.100;5.056;2023-05-29T02:28:55;11.45;;;0.50;;
49812;SDS011;35706;52.100;5.056;2023-05-29T02:29:56;11.05;;;0.60;;
49812;SDS011;35706;52.100;5.056;2023-05-29T02:30:56;8.75;;;0.43;;
49812;SDS011;35706;52.100;5.056;2023-05-29T02:31:56;10.45;;;0.50;;
49812;SDS011;35706;52.100;5.056;2023-05-29T02:32:57;7.05;;;0.40;;
49812;SDS011;35706;52.100;5.056;2023-05-29T02:33:57;12.50;;;0.50;;
49812;SDS011;35706;52.100;5.056;2023-05-29T02:34:57;9.48;;;0.50;;
49812;SDS011;35706;52.100;5.056;2023-05-29T02:35:58;9.93;;;0.50;;
49812;SDS011;35706;52.100;5.056;2023-05-29T02:36:58;12.32;;;0.40;;
49812;SDS011;35706;52.100;5.056;2023-05-29T02:37:58;12.93;;;0.80;;
49812;SDS011;35706;52.100;5.056;2023-05-29T02:38:59;10.82;;;0.50;;
49812;SDS011;35706;52.100;5.056;2023-05-29T02:39:59;8.82;;;0.50;;
49812;SDS011;35706;52.100;5.056;2023-05-29T02:40:59;12.48;;;0.50;;
49812;SDS011;35706;52.100;5.056;2023-05-29T02:42:00;9.18;;;0.50;;
49812;SDS011;35706;52.100;5.056;2023-05-29T02:43:00;7.38;;;0.45;;
49812;SDS011;35706;52.100;5.056;2023-05-29T02:44:00;9.13;;;0.80;;
49812;SDS011;35706;52.100;5.056;2023-05-29T02:45:00;7.50;;;0.40;;
49812;SDS011;35706;52.100;5.056;2023-05-29T02:46:01;8.48;;;0.60;;
49812;SDS011;35706;52.100;5.056;2023-05-29T02:47:01;12.80;;;0.60;;
49812;SDS011;35706;52.100;5.056;2023-05-29T02:48:01;11.05;;;0.50;;
49812;SDS011;35706;52.100;5.056;2023-05-29T02:49:03;7.53;;;0.40;;
49812;SDS011;35706;52.100;5.056;2023-05-29T02:50:04;12.88;;;0.60;;
49812;SDS011;35706;52.100;5.056;2023-05-29T02:51:05;9.43;;;0.50;;
49812;SDS011;35706;52.100;5.056;2023-05-29T02:52:05;10.18;;;0.77;;
49812;SDS011;35706;52.100;5.056;2023-05-29T02:53:05;12.32;;;0.68;;
49812;SDS011;35706;52.100;5.056;2023-05-29T02:54:06;15.10;;;0.50;;
49812;SDS011;35706;52.100;5.056;2023-05-29T02:55:06;11.02;;;0.50;;
49812;SDS011;35706;52.100;5.056;2023-05-29T02:56:07;10.00;;;0.60;;
49812;SDS011;35706;52.100;5.056;2023-05-29T02:57:09;8.10;;;0.50;;
49812;SDS011;35706;52.100;5.056;2023-05-29T02:58:09;8.55;;;0.40;;
49812;SDS011;35706;52.100;5.056;2023-05-29T02:59:11;10.88;;;0.50;;
49812;SDS011;35706;52.100;5.056;2023-05-29T03:00:12;12.43;;;0.63;;
49812;SDS011;35706;52.100;5.056;2023-05-29T03:01:13;7.93;;;0.40;;
49812;SDS011;35706;52.100;5.056;2023-05-29T03:02:13;6.88;;;0.40;;
49812;SDS011;35706;52.100;5.056;2023-05-29T03:03:13;8.38;;;0.70;;
49812;SDS011;35706;52.100;5.056;2023-05-29T03:04:14;10.02;;;0.50;;
49812;SDS011;35706;52.100;5.056;2023-05-29T03:05:15;10.63;;;0.50;;
49812;SDS011;35706;52.100;5.056;2023-05-29T03:06:16;11.30;;;0.52;;
49812;SDS011;35706;52.100;5.056;2023-05-29T03:07:17;12.50;;;0.57;;
49812;SDS011;35706;52.100;5.056;2023-05-29T03:08:18;12.63;;;0.50;;
49812;SDS011;35706;52.100;5.056;2023-05-29T03:09:19;9.57;;;0.40;;
49812;SDS011;35706;52.100;5.056;2023-05-29T03:10:19;10.85;;;0.45;;
49812;SDS011;35706;52.100;5.056;2023-05-29T03:11:20;10.02;;;0.57;;
49812;SDS011;35706;52.100;5.056;2023-05-29T03:12:23;11.65;;;0.40;;
49812;SDS011;35706;52.100;5.056;2023-05-29T03:13:23;12.05;;;0.50;;
49812;SDS011;35706;52.100;5.056;2023-05-29T03:14:23;7.07;;;0.40;;
49812;SDS011;35706;52.100;5.056;2023-05-29T03:15:24;9.55;;;0.50;;
49812;SDS011;35706;52.100;5.056;2023-05-29T03:16:24;11.50;;;0.47;;
49812;SDS011;35706;52.100;5.056;2023-05-29T03:17:25;10.23;;;0.60;;
49812;SDS011;35706;52.100;5.056;2023-05-29T03:18:25;7.53;;;0.32;;
49812;SDS011;35706;52.100;5.056;2023-05-29T03:19:26;8.68;;;0.50;;
49812;SDS011;35706;52.100;5.056;2023-05-29T03:20:26;11.18;;;0.68;;
49812;SDS011;35706;52.100;5.056;2023-05-29T03:21:28;13.98;;;0.50;;
49812;SDS011;35706;52.100;5.056;2023-05-29T03:22:28;11.15;;;0.60;;
49812;SDS011;35706;52.100;5.056;2023-05-29T03:23:28;7.95;;;0.50;;
49812;SDS011;35706;52.100;5.056;2023-05-29T03:24:28;8.65;;;0.50;;
49812;SDS011;35706;52.100;5.056;2023-05-29T03:25:29;12.13;;;0.52;;
49812;SDS011;35706;52.100;5.056;2023-05-29T03:26:29;14.93;;;0.60;;
49812;SDS011;35706;52.100;5.056;2023-05-29T03:27:30;10.07;;;0.40;;
49812;SDS011;35706;52.100;5.056;2023-05-29T03:28:31;8.82;;;0.50;;
49812;SDS011;35706;52.100;5.056;2023-05-29T03:29:31;6.28;;;0.40;;
49812;SDS011;35706;52.100;5.056;2023-05-29T03:30:32;9.55;;;0.40;;
49812;SDS011;35706;52.100;5.056;2023-05-29T03:31:32;10.50;;;0.50;;
49812;SDS011;35706;52.100;5.056;2023-05-29T03:32:33;7.22;;;0.40;;
49812;SDS011;35706;52.100;5.056;2023-05-29T03:33:33;12.30;;;0.40;;
49812;SDS011;35706;52.100;5.056;2023-05-29T03:34:34;7.93;;;0.50;;
49812;SDS011;35706;52.100;5.056;2023-05-29T03:35:35;10.77;;;0.40;;
49812;SDS011;35706;52.100;5.056;2023-05-29T03:36:35;3.58;;;0.40;;
49812;SDS011;35706;52.100;5.056;2023-05-29T03:37:38;9.05;;;0.40;;
49812;SDS011;35706;52.100;5.056;2023-05-29T03:38:38;6.85;;;0.35;;
49812;SDS011;35706;52.100;5.056;2023-05-29T03:39:39;11.23;;;0.45;;
49812;SDS011;35706;52.100;5.056;2023-05-29T03:40:40;8.75;;;0.45;;
49812;SDS011;35706;52.100;5.056;2023-05-29T03:41:40;9.13;;;0.40;;
49812;SDS011;35706;52.100;5.056;2023-05-29T03:42:40;12.48;;;0.65;;
49812;SDS011;35706;52.100;5.056;2023-05-29T03:43:41;10.85;;;0.60;;
49812;SDS011;35706;52.100;5.056;2023-05-29T03:44:41;10.55;;;0.40;;
49812;SDS011;35706;52.100;5.056;2023-05-29T03:45:42;7.35;;;0.40;;
49812;SDS011;35706;52.100;5.056;2023-05-29T03:46:42;10.38;;;0.40;;
49812;SDS011;35706;52.100;5.056;2023-05-29T03:47:42;6.95;;;0.30;;
49812;SDS011;35706;52.100;5.056;2023-05-29T03:48:43;13.88;;;0.50;;
49812;SDS011;35706;52.100;5.056;2023-05-29T03:49:43;8.70;;;0.40;;
49812;SDS011;35706;52.100;5.056;2023-05-29T03:50:44;10.85;;;0.50;;
49812;SDS011;35706;52.100;5.056;2023-05-29T03:51:46;10.57;;;0.60;;
49812;SDS011;35706;52.100;5.056;2023-05-29T03:52:46;10.48;;;0.50;;
49812;SDS011;35706;52.100;5.056;2023-05-29T03:53:46;8.65;;;0.70;;
49812;SDS011;35706;52.100;5.056;2023-05-29T03:54:47;5.15;;;0.40;;
49812;SDS011;35706;52.100;5.056;2023-05-29T03:55:47;10.60;;;0.40;;
49812;SDS011;35706;52.100;5.056;2023-05-29T03:56:47;12.27;;;0.43;;
49812;SDS011;35706;52.100;5.056;2023-05-29T03:57:48;8.07;;;0.50;;
49812;SDS011;35706;52.100;5.056;2023-05-29T03:58:48;6.82;;;0.45;;
49812;SDS011;35706;52.100;5.056;2023-05-29T03:59:48;10.30;;;0.40;;
49812;SDS011;35706;52.100;5.056;2023-05-29T04:00:48;7.60;;;0.73;;
49812;SDS011;35706;52.100;5.056;2023-05-29T04:01:49;7.47;;;0.40;;
49812;SDS011;35706;52.100;5.056;2023-05-29T04:02:49;8.50;;;0.35;;
49812;SDS011;35706;52.100;5.056;2023-05-29T04:03:50;18.30;;;0.65;;
49812;SDS011;35706;52.100;5.056;2023-05-29T04:04:50;8.82;;;0.45;;
49812;SDS011;35706;52.100;5.056;2023-05-29T04:05:50;11.05;;;0.50;;
49812;SDS011;35706;52.100;5.056;2023-05-29T04:06:50;7.35;;;0.50;;
49812;SDS011;35706;52.100;5.056;2023-05-29T04:07:51;11.10;;;0.50;;
49812;SDS011;35706;52.100;5.056;2023-05-29T04:08:52;7.47;;;0.52;;
49812;SDS011;35706;52.100;5.056;2023-05-29T04:09:52;11.38;;;0.80;;
49812;SDS011;35706;52.100;5.056;2023-05-29T04:10:52;16.42;;;0.55;;
49812;SDS011;35706;52.100;5.056;2023-05-29T04:11:56;13.50;;;0.60;;
49812;SDS011;35706;52.100;5.056;2023-05-29T04:12:56;11.02;;;0.50;;
49812;SDS011;35706;52.100;5.056;2023-05-29T04:13:56;6.03;;;0.40;;
49812;SDS011;35706;52.100;5.056;2023-05-29T04:14:57;8.63;;;0.40;;
49812;SDS011;35706;52.100;5.056;2023-05-29T04:15:57;12.63;;;0.50;;
49812;SDS011;35706;52.100;5.056;2023-05-29T04:16:58;12.65;;;0.50;;
49812;SDS011;35706;52.100;5.056;2023-05-29T04:17:58;9.90;;;0.40;;
49812;SDS011;35706;52.100;5.056;2023-05-29T04:18:59;7.60;;;0.50;;
49812;SDS011;35706;52.100;5.056;2023-05-29T04:19:59;11.55;;;0.98;;
49812;SDS011;35706;52.100;5.056;2023-05-29T04:21:05;13.35;;;0.55;;
49812;SDS011;35706;52.100;5.056;2023-05-29T04:22:06;10.98;;;0.40;;
49812;SDS011;35706;52.100;5.056;2023-05-29T04:23:06;10.30;;;0.43;;
49812;SDS011;35706;52.100;5.056;2023-05-29T04:24:07;10.93;;;0.40;;
49812;SDS011;35706;52.100;5.056;2023-05-29T04:25:07;9.68;;;0.50;;
49812;SDS011;35706;52.100;5.056;2023-05-29T04:26:08;9.82;;;0.50;;
49812;SDS011;35706;52.100;5.056;2023-05-29T04:27:09;16.38;;;0.52;;
49812;SDS011;35706;52.100;5.056;2023-05-29T04:28:12;12.18;;;0.40;;
49812;SDS011;35706;52.100;5.056;2023-05-29T04:29:13;16.23;;;0.50;;
49812;SDS011;35706;52.100;5.056;2023-05-29T04:30:14;10.35;;;0.40;;
49812;SDS011;35706;52.100;5.056;2023-05-29T04:31:15;9.60;;;0.47;;
49812;SDS011;35706;52.100;5.056;2023-05-29T04:32:16;8.68;;;0.40;;
49812;SDS011;35706;52.100;5.056;2023-05-29T04:33:17;9.95;;;0.70;;
49812;SDS011;35706;52.100;5.056;2023-05-29T04:34:18;14.57;;;0.50;;
49812;SDS011;35706;52.100;5.056;2023-05-29T04:35:20;11.93;;;0.38;;
49812;SDS011;35706;52.100;5.056;2023-05-29T04:36:24;9.82;;;0.50;;
49812;SDS011;35706;52.100;5.056;2023-05-29T04:37:31;10.88;;;0.40;;
49812;SDS011;35706;52.100;5.056;2023-05-29T04:38:37;10.52;;;0.60;;
49812;SDS011;35706;52.100;5.056;2023-05-29T04:39:37;11.35;;;0.52;;
49812;SDS011;35706;52.100;5.056;2023-05-29T04:40:37;12.93;;;0.60;;
49812;SDS011;35706;52.100;5.056;2023-05-29T04:41:39;10.75;;;0.50;;
49812;SDS011;35706;52.100;5.056;2023-05-29T04:42:40;6.57;;;0.77;;
49812;SDS011;35706;52.100;5.056;2023-05-29T04:43:40;11.40;;;0.50;;
49812;SDS011;35706;52.100;5.056;2023-05-29T04:44:41;9.57;;;0.43;;
49812;SDS011;35706;52.100;5.056;2023-05-29T04:45:43;12.50;;;0.40;;
49812;SDS011;35706;52.100;5.056;2023-05-29T04:46:43;12.55;;;0.65;;
49812;SDS011;35706;52.100;5.056;2023-05-29T04:47:44;13.68;;;0.50;;
49812;SDS011;35706;52.100;5.056;2023-05-29T04:48:44;14.07;;;0.80;;
49812;SDS011;35706;52.100;5.056;2023-05-29T04:49:45;9.82;;;0.50;;
49812;SDS011;35706;52.100;5.056;2023-05-29T04:50:49;11.02;;;0.60;;
49812;SDS011;35706;52.100;5.056;2023-05-29T04:51:49;5.93;;;0.40;;
49812;SDS011;35706;52.100;5.056;2023-05-29T04:52:52;11.20;;;0.60;;
49812;SDS011;35706;52.100;5.056;2023-05-29T04:53:53;9.63;;;0.40;;
49812;SDS011;35706;52.100;5.056;2023-05-29T04:54:56;10.27;;;0.47;;
49812;SDS011;35706;52.100;5.056;2023-05-29T04:55:56;7.88;;;0.45;;
49812;SDS011;35706;52.100;5.056;2023-05-29T04:56:56;11.30;;;0.60;;
49812;SDS011;35706;52.100;5.056;2023-05-29T04:57:57;10.88;;;0.43;;
49812;SDS011;35706;52.100;5.056;2023-05-29T04:58:57;11.52;;;0.40;;
49812;SDS011;35706;52.100;5.056;2023-05-29T04:59:58;8.95;;;0.50;;
49812;SDS011;35706;52.100;5.056;2023-05-29T05:00:58;9.80;;;0.40;;
49812;SDS011;35706;52.100;5.056;2023-05-29T05:01:59;8.32;;;0.55;;
49812;SDS011;35706;52.100;5.056;2023-05-29T05:02:59;4.60;;;0.40;;
49812;SDS011;35706;52.100;5.056;2023-05-29T05:04:00;12.65;;;0.55;;
49812;SDS011;35706;52.100;5.056;2023-05-29T05:05:00;9.27;;;0.80;;
49812;SDS011;35706;52.100;5.056;2023-05-29T05:06:01;13.98;;;0.70;;
49812;SDS011;35706;52.100;5.056;2023-05-29T05:07:03;13.45;;;0.60;;
49812;SDS011;35706;52.100;5.056;2023-05-29T05:08:05;13.88;;;0.50;;
49812;SDS011;35706;52.100;5.056;2023-05-29T05:09:05;12.27;;;0.50;;
49812;SDS011;35706;52.100;5.056;2023-05-29T05:10:06;8.43;;;0.40;;
49812;SDS011;35706;52.100;5.056;2023-05-29T05:11:07;12.57;;;0.60;;
49812;SDS011;35706;52.100;5.056;2023-05-29T05:12:08;9.23;;;0.50;;
49812;SDS011;35706;52.100;5.056;2023-05-29T05:13:08;11.07;;;0.50;;
49812;SDS011;35706;52.100;5.056;2023-05-29T05:14:08;13.98;;;0.40;;
49812;SDS011;35706;52.100;5.056;2023-05-29T05:15:09;10.90;;;0.50;;
49812;SDS011;35706;52.100;5.056;2023-05-29T05:16:10;8.70;;;0.40;;
49812;SDS011;35706;52.100;5.056;2023-05-29T05:17:10;12.23;;;0.50;;
49812;SDS011;35706;52.100;5.056;2023-05-29T05:18:10;10.48;;;0.47;;
49812;SDS011;35706;52.100;5.056;2023-05-29T05:19:11;14.55;;;0.60;;
49812;SDS011;35706;52.100;5.056;2023-05-29T05:20:11;7.53;;;0.52;;
49812;SDS011;35706;52.100;5.056;2023-05-29T05:21:11;12.27;;;1.20;;
49812;SDS011;35706;52.100;5.056;2023-05-29T05:22:12;10.02;;;0.50;;
49812;SDS011;35706;52.100;5.056;2023-05-29T05:23:12;13.93;;;0.55;;
49812;SDS011;35706;52.100;5.056;2023-05-29T05:24:12;13.38;;;0.50;;
49812;SDS011;35706;52.100;5.056;2023-05-29T05:25:13;13.88;;;0.50;;
49812;SDS011;35706;52.100;5.056;2023-05-29T05:26:14;10.07;;;0.50;;
49812;SDS011;35706;52.100;5.056;2023-05-29T05:27:14;15.27;;;0.50;;
49812;SDS011;35706;52.100;5.056;2023-05-29T05:28:14;14.65;;;0.80;;
49812;SDS011;35706;52.100;5.056;2023-05-29T05:29:15;10.70;;;0.52;;
49812;SDS011;35706;52.100;5.056;2023-05-29T05:30:15;10.52;;;0.60;;
49812;SDS011;35706;52.100;5.056;2023-05-29T05:31:16;13.45;;;1.35;;
49812;SDS011;35706;52.100;5.056;2023-05-29T05:32:16;12.55;;;0.68;;
49812;SDS011;35706;52.100;5.056;2023-05-29T05:33:16;8.82;;;0.52;;
49812;SDS011;35706;52.100;5.056;2023-05-29T05:34:16;10.55;;;0.50;;
49812;SDS011;35706;52.100;5.056;2023-05-29T05:35:17;11.18;;;0.60;;
49812;SDS011;35706;52.100;5.056;2023-05-29T05:36:18;7.43;;;0.50;;
49812;SDS011;35706;52.100;5.056;2023-05-29T05:37:18;12.00;;;0.88;;
49812;SDS011;35706;52.100;5.056;2023-05-29T05:38:18;16.38;;;0.50;;
49812;SDS011;35706;52.100;5.056;2023-05-29T05:39:19;14.23;;;0.60;;
49812;SDS011;35706;52.100;5.056;2023-05-29T05:40:19;10.02;;;0.47;;
49812;SDS011;35706;52.100;5.056;2023-05-29T05:41:19;9.77;;;0.50;;
49812;SDS011;35706;52.100;5.056;2023-05-29T05:42:21;13.77;;;0.70;;
49812;SDS011;35706;52.100;5.056;2023-05-29T05:43:21;11.95;;;0.98;;
49812;SDS011;35706;52.100;5.056;2023-05-29T05:44:22;16.25;;;0.50;;
49812;SDS011;35706;52.100;5.056;2023-05-29T05:45:22;12.50;;;0.60;;
49812;SDS011;35706;52.100;5.056;2023-05-29T05:46:23;9.57;;;0.60;;
49812;SDS011;35706;52.100;5.056;2023-05-29T05:47:23;11.93;;;0.50;;
49812;SDS011;35706;52.100;5.056;2023-05-29T05:48:23;17.55;;;0.50;;
49812;SDS011;35706;52.100;5.056;2023-05-29T05:49:24;12.27;;;0.55;;
49812;SDS011;35706;52.100;5.056;2023-05-29T05:50:24;13.88;;;0.52;;
49812;SDS011;35706;52.100;5.056;2023-05-29T05:51:25;14.32;;;0.60;;
49812;SDS011;35706;52.100;5.056;2023-05-29T05:52:25;9.98;;;0.50;;
49812;SDS011;35706;52.100;5.056;2023-05-29T05:53:30;12.18;;;0.60;;
49812;SDS011;35706;52.100;5.056;2023-05-29T05:54:30;15.38;;;0.50;;
49812;SDS011;35706;52.100;5.056;2023-05-29T05:55:30;12.15;;;0.50;;
49812;SDS011;35706;52.100;5.056;2023-05-29T05:56:31;8.10;;;0.45;;
49812;SDS011;35706;52.100;5.056;2023-05-29T05:57:31;14.02;;;0.60;;
49812;SDS011;35706;52.100;5.056;2023-05-29T05:58:32;10.73;;;0.50;;
49812;SDS011;35706;52.100;5.056;2023-05-29T05:59:33;12.43;;;0.50;;
49812;SDS011;35706;52.100;5.056;2023-05-29T06:00:33;10.13;;;0.90;;
49812;SDS011;35706;52.100;5.056;2023-05-29T06:01:33;12.60;;;0.50;;
49812;SDS011;35706;52.100;5.056;2023-05-29T06:02:34;12.07;;;0.55;;
49812;SDS011;35706;52.100;5.056;2023-05-29T06:03:34;15.68;;;0.52;;
49812;SDS011;35706;52.100;5.056;2023-05-29T06:04:36;16.45;;;0.60;;
49812;SDS011;35706;52.100;5.056;2023-05-29T06:05:37;13.10;;;0.47;;
49812;SDS011;35706;52.100;5.056;2023-05-29T06:06:40;11.70;;;0.40;;
49812;SDS011;35706;52.100;5.056;2023-05-29T06:07:41;11.68;;;0.60;;
49812;SDS011;35706;52.100;5.056;2023-05-29T06:08:41;10.65;;;0.40;;
49812;SDS011;35706;52.100;5.056;2023-05-29T06:09:41;15.05;;;0.50;;
49812;SDS011;35706;52.100;5.056;2023-05-29T06:10:41;11.40;;;0.50;;
49812;SDS011;35706;52.100;5.056;2023-05-29T06:11:42;14.30;;;0.55;;